Time;durP1;ratioP1;P1;durP2;ratioP2;P2;SDS_P1;SDS_P2;PMS_P1;PMS_P2;Temp;Humidity;BMP_temperature;BMP_pressure;BME280_temperature;BME280_humidity;BME280_pressure;Samples;Min_cycle;Max_cycle;Signal;HPM_P1;HPM_P2
2023/03/19 00:01:39;;;;;;;;;4.67;4.00;;;;;;;;5055943;28;45999;-58
2023/03/19 00:04:05;;;;;;;;;3.00;3.00;;;;;;;;5056227;28;45459;-58
2023/03/19 00:06:30;;;;;;;;;2.00;2.00;;;;;;;;5056504;28;45474;-58
2023/03/19 00:08:56;;;;;;;;;3.00;3.00;;;;;;;;5055452;28;45633;-58
2023/03/19 00:11:21;;;;;;;;;3.67;3.67;;;;;;;;5055525;28;46366;-58
2023/03/19 00:13:46;;;;;;;;;2.67;2.67;;;;;;;;5056026;28;45548;-58
2023/03/19 00:16:11;;;;;;;;;4.00;4.00;;;;;;;;5056379;28;45497;-58
2023/03/19 00:18:37;;;;;;;;;1.67;1.67;;;;;;;;5056301;28;45415;-58
2023/03/19 00:21:02;;;;;;;;;2.00;2.00;;;;;;;;5055833;28;46369;-58
2023/03/19 00:23:27;;;;;;;;;2.00;2.00;;;;;;;;5056157;28;45466;-58
2023/03/19 00:25:53;;;;;;;;;2.33;2.33;;;;;;;;5055643;28;45589;-58
2023/03/19 00:28:18;;;;;;;;;3.00;2.00;;;;;;;;5056117;28;45535;-58
2023/03/19 00:30:44;;;;;;;;;2.33;2.33;;;;;;;;5055578;28;45553;-58
2023/03/19 00:33:09;;;;;;;;;2.67;2.00;;;;;;;;5055808;28;45463;-58
2023/03/19 00:35:34;;;;;;;;;1.67;1.67;;;;;;;;5056186;28;45493;-58
2023/03/19 00:38:00;;;;;;;;;3.00;2.67;;;;;;;;5054881;28;45383;-58
2023/03/19 00:40:26;;;;;;;;;2.00;2.00;;;;;;;;5054842;28;46155;-58
2023/03/19 00:42:51;;;;;;;;;2.33;2.33;;;;;;;;5055670;28;45527;-58
2023/03/19 00:45:16;;;;;;;;;3.00;3.00;;;;;;;;5055511;28;45454;-58
2023/03/19 00:47:42;;;;;;;;;3.33;2.33;;;;;;;;5055429;28;45585;-57
2023/03/19 00:50:08;;;;;;;;;2.00;2.00;;;;;;;;5054960;28;45911;-58
2023/03/19 00:52:33;;;;;;;;;1.00;1.00;;;;;;;;5055650;28;45446;-58
2023/03/19 00:54:58;;;;;;;;;4.00;3.33;;;;;;;;5055173;28;45463;-58
2023/03/19 00:57:24;;;;;;;;;3.00;3.00;;;;;;;;5055524;28;45471;-58
2023/03/19 00:59:49;;;;;;;;;1.00;1.00;;;;;;;;5055045;28;46042;-58
2023/03/19 01:02:14;;;;;;;;;2.00;2.00;;;;;;;;5037220;28;45508;-58
2023/03/19 01:04:40;;;;;;;;;2.00;2.00;;;;;;;;5037164;28;45417;-58
2023/03/19 01:07:05;;;;;;;;;5.00;2.00;;;;;;;;5055274;28;45587;-58
2023/03/19 01:09:31;;;;;;;;;2.00;2.00;;;;;;;;5053307;28;46300;-58
2023/03/19 01:11:56;;;;;;;;;2.33;2.33;;;;;;;;5055061;28;45443;-58
2023/03/19 01:14:21;;;;;;;;;5.33;5.33;;;;;;;;5054907;28;45481;-58
2023/03/19 01:16:47;;;;;;;;;3.33;3.33;;;;;;;;5055320;28;45678;-58
2023/03/19 01:19:13;;;;;;;;;2.67;2.67;;;;;;;;5054862;28;45996;-58
2023/03/19 01:21:38;;;;;;;;;2.00;2.00;;;;;;;;5055101;28;45535;-58
2023/03/19 01:24:04;;;;;;;;;4.00;4.00;;;;;;;;5055055;28;45403;-58
2023/03/19 01:26:29;;;;;;;;;4.00;4.00;;;;;;;;5054983;28;45475;-58
2023/03/19 01:28:54;;;;;;;;;4.00;4.00;;;;;;;;5054743;28;45669;-58
2023/03/19 01:31:20;;;;;;;;;1.67;1.67;;;;;;;;5054670;28;45442;-58
2023/03/19 01:33:46;;;;;;;;;2.00;2.00;;;;;;;;5055028;28;45534;-58
2023/03/19 01:36:11;;;;;;;;;2.67;2.67;;;;;;;;5054698;28;45578;-58
2023/03/19 01:38:37;;;;;;;;;2.67;2.00;;;;;;;;5054132;28;46979;-58
2023/03/19 01:41:02;;;;;;;;;3.00;3.00;;;;;;;;5054273;28;45512;-58
2023/03/19 01:43:28;;;;;;;;;3.00;3.00;;;;;;;;5054211;28;45632;-58
2023/03/19 01:46:12;;;;;;;;;3.00;3.00;;;;;;;;5054848;28;45549;-58
2023/03/19 01:48:51;;;;;;;;;6.33;3.67;;;;;;;;5054284;28;46011;-58
2023/03/19 01:51:18;;;;;;;;;2.00;2.00;;;;;;;;5054598;28;45459;-58
2023/03/19 01:53:46;;;;;;;;;3.00;3.00;;;;;;;;5054468;28;45518;-58
2023/03/19 01:56:14;;;;;;;;;4.00;4.00;;;;;;;;5036346;28;45463;-58
2023/03/19 01:58:41;;;;;;;;;3.00;3.00;;;;;;;;5054285;28;45599;-58
2023/03/19 02:01:06;;;;;;;;;3.00;3.00;;;;;;;;5054153;28;45439;-58
2023/03/19 02:03:32;;;;;;;;;4.33;3.00;;;;;;;;5054253;28;45474;-59
2023/03/19 02:05:58;;;;;;;;;4.00;2.33;;;;;;;;5035431;28;45450;-58
2023/03/19 02:08:24;;;;;;;;;4.00;4.00;;;;;;;;5053195;28;45494;-58
2023/03/19 02:10:50;;;;;;;;;3.00;3.00;;;;;;;;5048834;28;45467;-57
2023/03/19 02:13:16;;;;;;;;;4.00;4.00;;;;;;;;5053113;28;45787;-58
2023/03/19 02:15:41;;;;;;;;;4.00;3.00;;;;;;;;5053949;28;45530;-58
2023/03/19 02:18:07;;;;;;;;;3.33;3.00;;;;;;;;5054098;28;46176;-58
2023/03/19 02:20:35;;;;;;;;;3.00;3.00;;;;;;;;5035819;28;45539;-58
2023/03/19 02:23:00;;;;;;;;;4.00;4.00;;;;;;;;5054282;28;45500;-58
2023/03/19 02:25:37;;;;;;;;;4.00;4.00;;;;;;;;5054077;28;45666;-58
2023/03/19 02:28:03;;;;;;;;;5.00;4.00;;;;;;;;5054003;28;46415;-58
2023/03/19 02:30:30;;;;;;;;;5.33;4.00;;;;;;;;5053338;28;45411;-58
2023/03/19 02:32:55;;;;;;;;;4.00;4.00;;;;;;;;5052500;28;45506;-58
2023/03/19 02:35:20;;;;;;;;;5.67;4.67;;;;;;;;5052667;28;45450;-58
2023/03/19 02:37:46;;;;;;;;;3.00;3.00;;;;;;;;5051830;28;45541;-58
2023/03/19 02:40:18;;;;;;;;;3.00;3.00;;;;;;;;5052275;28;45464;-58
2023/03/19 02:42:43;;;;;;;;;4.00;4.00;;;;;;;;5052375;28;45521;-58
2023/03/19 02:45:09;;;;;;;;;5.33;4.33;;;;;;;;5039349;28;45557;-58
2023/03/19 02:47:34;;;;;;;;;4.00;4.00;;;;;;;;5052083;28;45517;-58
2023/03/19 02:49:59;;;;;;;;;2.00;2.00;;;;;;;;5051994;28;45532;-58
2023/03/19 02:52:24;;;;;;;;;4.00;4.00;;;;;;;;5057947;28;45605;-58
2023/03/19 02:54:50;;;;;;;;;3.00;3.00;;;;;;;;5072575;27;45374;-58
2023/03/19 02:57:15;;;;;;;;;4.00;4.00;;;;;;;;5072443;27;45475;-58
2023/03/19 02:59:40;;;;;;;;;3.33;3.33;;;;;;;;5052943;28;45477;-58
2023/03/19 03:02:05;;;;;;;;;5.33;4.00;;;;;;;;5066684;27;45553;-58
2023/03/19 03:04:32;;;;;;;;;4.33;4.00;;;;;;;;5061996;27;45755;-58
2023/03/19 03:06:57;;;;;;;;;3.67;3.67;;;;;;;;5052333;28;47523;-58
2023/03/19 03:09:23;;;;;;;;;4.00;4.00;;;;;;;;5072055;28;45474;-58
2023/03/19 03:11:48;;;;;;;;;4.67;4.33;;;;;;;;5053650;28;45596;-58
2023/03/19 03:14:13;;;;;;;;;4.67;4.67;;;;;;;;5071673;28;45447;-58
2023/03/19 03:16:39;;;;;;;;;5.00;4.00;;;;;;;;5071824;27;45492;-58
2023/03/19 03:19:04;;;;;;;;;5.00;5.00;;;;;;;;5071521;27;45399;-58
2023/03/19 03:21:30;;;;;;;;;5.00;5.00;;;;;;;;5053849;28;45515;-58
2023/03/19 03:23:55;;;;;;;;;5.00;4.33;;;;;;;;5072005;27;45449;-58
2023/03/19 03:26:20;;;;;;;;;5.67;5.00;;;;;;;;5071989;28;46306;-57
2023/03/19 03:28:46;;;;;;;;;5.00;3.67;;;;;;;;5072178;28;45540;-57
2023/03/19 03:31:12;;;;;;;;;4.00;4.00;;;;;;;;5032226;27;1137691;-57
2023/03/19 03:33:38;;;;;;;;;4.00;4.00;;;;;;;;5073750;28;45489;-57
2023/03/19 03:36:03;;;;;;;;;6.00;5.67;;;;;;;;5073021;27;46069;-57
2023/03/19 03:38:28;;;;;;;;;5.00;5.00;;;;;;;;5066113;27;45469;-58
2023/03/19 03:40:53;;;;;;;;;5.33;5.33;;;;;;;;5073498;28;45455;-58
2023/03/19 03:43:20;;;;;;;;;4.00;4.00;;;;;;;;5055087;28;45574;-57
2023/03/19 03:45:46;;;;;;;;;4.67;4.67;;;;;;;;5073286;28;45915;-57
2023/03/19 03:48:11;;;;;;;;;6.00;6.00;;;;;;;;5054489;28;45546;-57
2023/03/19 03:50:37;;;;;;;;;4.00;4.00;;;;;;;;5073232;27;45463;-57
2023/03/19 03:53:02;;;;;;;;;5.67;5.00;;;;;;;;5073180;28;45458;-57
2023/03/19 03:55:27;;;;;;;;;5.33;3.33;;;;;;;;5073004;28;45503;-57
2023/03/19 03:57:53;;;;;;;;;5.00;5.00;;;;;;;;5072999;27;45556;-57
2023/03/19 04:00:18;;;;;;;;;5.67;4.67;;;;;;;;5068133;28;45462;-57
2023/03/19 04:02:44;;;;;;;;;3.33;3.33;;;;;;;;5064314;27;45535;-58
2023/03/19 04:05:09;;;;;;;;;4.00;4.00;;;;;;;;5072870;27;45731;-58
2023/03/19 04:07:35;;;;;;;;;5.00;5.00;;;;;;;;5062092;27;45632;-58
2023/03/19 04:10:01;;;;;;;;;4.00;4.00;;;;;;;;5068122;28;45643;-58
2023/03/19 04:12:26;;;;;;;;;5.33;4.33;;;;;;;;5062492;27;45478;-57
2023/03/19 04:14:51;;;;;;;;;6.00;6.00;;;;;;;;5072865;27;45903;-58
2023/03/19 04:17:17;;;;;;;;;4.33;4.33;;;;;;;;5072946;28;45637;-58
2023/03/19 04:19:42;;;;;;;;;5.33;4.33;;;;;;;;5073162;27;45489;-58
2023/03/19 04:22:08;;;;;;;;;3.33;3.33;;;;;;;;5072703;27;45532;-58
2023/03/19 04:24:33;;;;;;;;;5.67;5.67;;;;;;;;5072781;28;45595;-58
2023/03/19 04:26:58;;;;;;;;;5.00;4.67;;;;;;;;5072530;27;45406;-58
2023/03/19 04:29:23;;;;;;;;;6.33;5.00;;;;;;;;5055841;28;45516;-58
2023/03/19 04:31:49;;;;;;;;;6.67;6.67;;;;;;;;5075854;27;45435;-58
2023/03/19 04:34:15;;;;;;;;;7.67;6.00;;;;;;;;5076005;27;46133;-58
2023/03/19 04:36:40;;;;;;;;;9.33;9.33;;;;;;;;5073480;27;45621;-58
2023/03/19 04:39:05;;;;;;;;;6.33;5.00;;;;;;;;5069068;28;45559;-58
2023/03/19 04:41:31;;;;;;;;;5.67;5.00;;;;;;;;5076327;28;45497;-58
2023/03/19 04:43:56;;;;;;;;;5.00;4.00;;;;;;;;5075848;27;45489;-58
2023/03/19 04:46:21;;;;;;;;;5.00;5.00;;;;;;;;5075422;27;45538;-58
2023/03/19 04:48:47;;;;;;;;;6.00;6.00;;;;;;;;5076369;28;45404;-58
2023/03/19 04:51:12;;;;;;;;;6.67;6.67;;;;;;;;5075936;27;45586;-58
2023/03/19 04:53:38;;;;;;;;;5.00;5.00;;;;;;;;5057511;27;46743;-58
2023/03/19 04:56:05;;;;;;;;;7.00;7.00;;;;;;;;5075742;27;45517;-58
2023/03/19 04:58:30;;;;;;;;;7.00;7.00;;;;;;;;5075985;27;45596;-58
2023/03/19 05:00:56;;;;;;;;;8.00;7.00;;;;;;;;5065116;28;45601;-58
2023/03/19 05:03:21;;;;;;;;;7.00;7.00;;;;;;;;5071780;27;45626;-58
2023/03/19 05:05:46;;;;;;;;;7.00;7.00;;;;;;;;5075447;27;45557;-58
2023/03/19 05:08:12;;;;;;;;;9.00;7.00;;;;;;;;5072366;27;45595;-58
2023/03/19 05:10:38;;;;;;;;;9.67;7.33;;;;;;;;5075892;28;45415;-58
2023/03/19 05:13:03;;;;;;;;;8.00;8.00;;;;;;;;5075422;27;45537;-58
2023/03/19 05:15:29;;;;;;;;;10.33;7.67;;;;;;;;5075336;27;45402;-58
2023/03/19 05:17:54;;;;;;;;;12.00;7.67;;;;;;;;5075579;28;45465;-58
2023/03/19 05:20:19;;;;;;;;;8.00;8.00;;;;;;;;5075418;27;45398;-58
2023/03/19 05:22:45;;;;;;;;;7.33;7.33;;;;;;;;5075266;27;45510;-58
2023/03/19 05:25:11;;;;;;;;;7.00;7.00;;;;;;;;5075402;27;45481;-58
2023/03/19 05:27:36;;;;;;;;;13.33;11.00;;;;;;;;5075604;27;45475;-58
2023/03/19 05:30:02;;;;;;;;;7.33;7.33;;;;;;;;5075320;27;45537;-57
2023/03/19 05:32:27;;;;;;;;;11.33;9.67;;;;;;;;5074905;27;45493;-58
2023/03/19 05:34:53;;;;;;;;;11.33;11.33;;;;;;;;5074939;28;45759;-57
2023/03/19 05:37:18;;;;;;;;;8.67;8.67;;;;;;;;5066510;28;45507;-58
2023/03/19 05:39:43;;;;;;;;;10.00;9.67;;;;;;;;5074520;28;45384;-57
2023/03/19 05:42:08;;;;;;;;;11.00;11.00;;;;;;;;5074033;27;46142;-58
2023/03/19 05:44:34;;;;;;;;;13.00;10.00;;;;;;;;5075008;27;45462;-58
2023/03/19 05:46:59;;;;;;;;;12.00;9.33;;;;;;;;5075145;27;45644;-58
2023/03/19 05:49:24;;;;;;;;;12.33;12.33;;;;;;;;5074882;27;45667;-58
2023/03/19 05:51:50;;;;;;;;;11.67;10.67;;;;;;;;5074747;27;46095;-58
2023/03/19 05:54:15;;;;;;;;;11.00;11.00;;;;;;;;5056548;28;45718;-58
2023/03/19 05:56:40;;;;;;;;;10.67;10.00;;;;;;;;5074970;27;45439;-58
2023/03/19 05:59:06;;;;;;;;;11.67;11.67;;;;;;;;5075089;27;45441;-58
2023/03/19 06:01:31;;;;;;;;;14.00;14.00;;;;;;;;5042200;28;45807;-58
2023/03/19 06:03:56;;;;;;;;;13.00;11.00;;;;;;;;5074976;27;45447;-58
2023/03/19 06:06:21;;;;;;;;;12.00;12.00;;;;;;;;5070449;27;45382;-58
2023/03/19 06:08:47;;;;;;;;;11.00;10.00;;;;;;;;5073416;27;45414;-58
2023/03/19 06:11:12;;;;;;;;;12.33;12.33;;;;;;;;5074703;27;45862;-58
2023/03/19 06:13:38;;;;;;;;;12.33;11.00;;;;;;;;5074160;27;45447;-58
2023/03/19 06:16:03;;;;;;;;;12.33;12.33;;;;;;;;5074475;27;45391;-58
2023/03/19 06:18:28;;;;;;;;;13.00;13.00;;;;;;;;5056423;28;45427;-58
2023/03/19 06:20:53;;;;;;;;;11.50;10.00;;;;;;;;5056001;28;47353;-58
2023/03/19 06:23:19;;;;;;;;;13.00;13.00;;;;;;;;5074237;27;45423;-58
2023/03/19 06:25:44;;;;;;;;;11.33;11.33;;;;;;;;5074514;27;45499;-58
2023/03/19 06:28:10;;;;;;;;;14.67;13.33;;;;;;;;5074605;27;45493;-58
2023/03/19 06:30:35;;;;;;;;;13.00;11.00;;;;;;;;5073975;27;45504;-58
2023/03/19 06:33:01;;;;;;;;;12.67;10.00;;;;;;;;5074343;27;45606;-58
2023/03/19 06:35:26;;;;;;;;;12.00;12.00;;;;;;;;5074467;27;45551;-58
2023/03/19 06:37:51;;;;;;;;;13.67;13.67;;;;;;;;5063484;27;45395;-58
2023/03/19 06:40:16;;;;;;;;;11.67;11.67;;;;;;;;5066035;27;45497;-58
2023/03/19 06:42:46;;;;;;;;;14.00;12.00;;;;;;;;5069194;27;45566;-58
2023/03/19 06:45:11;;;;;;;;;15.33;14.00;;;;;;;;5074016;27;45494;-57
2023/03/19 06:47:36;;;;;;;;;11.67;11.67;;;;;;;;5074038;27;45541;-58
2023/03/19 06:50:02;;;;;;;;;11.67;11.67;;;;;;;;5073813;27;45589;-58
2023/03/19 06:52:27;;;;;;;;;11.33;11.33;;;;;;;;5073602;27;45408;-57
2023/03/19 06:54:52;;;;;;;;;11.33;11.33;;;;;;;;5074161;27;45399;-58
2023/03/19 06:57:17;;;;;;;;;12.33;12.00;;;;;;;;5073718;27;45698;-57
2023/03/19 06:59:43;;;;;;;;;12.67;12.67;;;;;;;;5072995;27;46227;-58
2023/03/19 07:02:11;;;;;;;;;13.33;13.33;;;;;;;;5059909;28;45411;-58
2023/03/19 07:04:36;;;;;;;;;13.33;12.67;;;;;;;;5074026;27;45779;-58
2023/03/19 07:07:01;;;;;;;;;14.00;14.00;;;;;;;;5073809;27;45470;-57
2023/03/19 07:09:27;;;;;;;;;13.00;13.00;;;;;;;;5073602;27;45572;-58
2023/03/19 07:11:52;;;;;;;;;17.00;15.67;;;;;;;;5055345;28;45557;-58
2023/03/19 07:14:17;;;;;;;;;12.33;12.33;;;;;;;;5061508;27;45386;-58
2023/03/19 07:16:42;;;;;;;;;15.67;12.00;;;;;;;;5073700;28;45702;-58
2023/03/19 07:19:07;;;;;;;;;14.00;11.67;;;;;;;;5073572;27;45541;-58
2023/03/19 07:21:33;;;;;;;;;12.67;11.33;;;;;;;;5073508;27;45552;-57
2023/03/19 07:23:58;;;;;;;;;10.00;10.00;;;;;;;;5073593;28;45537;-57
2023/03/19 07:26:23;;;;;;;;;11.00;11.00;;;;;;;;5073720;27;45380;-58
2023/03/19 07:28:48;;;;;;;;;14.00;14.00;;;;;;;;5073272;28;46250;-58
2023/03/19 07:31:15;;;;;;;;;9.67;8.33;;;;;;;;5073111;28;45574;-58
2023/03/19 07:33:40;;;;;;;;;8.33;8.33;;;;;;;;5073459;27;45510;-58
2023/03/19 07:36:06;;;;;;;;;9.00;9.00;;;;;;;;5069265;28;45608;-58
2023/03/19 07:38:31;;;;;;;;;10.67;10.00;;;;;;;;5065212;28;45573;-58
2023/03/19 07:40:57;;;;;;;;;7.00;7.00;;;;;;;;5073029;27;45663;-58
2023/03/19 07:43:22;;;;;;;;;9.33;7.67;;;;;;;;5073338;27;45485;-58
2023/03/19 07:45:47;;;;;;;;;9.67;8.00;;;;;;;;5073187;27;45469;-58
2023/03/19 07:48:12;;;;;;;;;10.00;8.00;;;;;;;;5072990;27;45576;-58
2023/03/19 07:50:38;;;;;;;;;7.33;7.33;;;;;;;;5073362;27;45448;-58
2023/03/19 07:53:03;;;;;;;;;7.33;7.00;;;;;;;;5073372;27;45485;-58
2023/03/19 07:55:28;;;;;;;;;9.33;9.33;;;;;;;;5073170;27;45586;-58
2023/03/19 07:57:53;;;;;;;;;8.33;8.33;;;;;;;;5073028;28;46111;-58
2023/03/19 08:00:19;;;;;;;;;9.67;9.67;;;;;;;;5067587;27;45518;-58
2023/03/19 08:02:44;;;;;;;;;8.33;7.00;;;;;;;;5064252;27;45562;-58
2023/03/19 08:05:10;;;;;;;;;7.00;7.00;;;;;;;;5075765;27;45462;-58
2023/03/19 08:07:35;;;;;;;;;5.67;5.67;;;;;;;;5068473;27;46314;-58
2023/03/19 08:10:01;;;;;;;;;9.33;8.00;;;;;;;;5076007;27;45395;-58
2023/03/19 08:12:26;;;;;;;;;9.67;8.67;;;;;;;;5076391;27;45546;-58
2023/03/19 08:14:51;;;;;;;;;7.00;7.00;;;;;;;;5076727;27;45550;-59
2023/03/19 08:17:16;;;;;;;;;10.00;10.00;;;;;;;;5076096;27;45560;-58
2023/03/19 08:19:42;;;;;;;;;10.00;6.67;;;;;;;;5076278;27;45497;-58
2023/03/19 08:22:07;;;;;;;;;5.00;5.00;;;;;;;;5076320;27;45437;-58
2023/03/19 08:24:32;;;;;;;;;6.33;6.33;;;;;;;;5073977;27;45798;-58
2023/03/19 08:26:57;;;;;;;;;11.33;10.00;;;;;;;;5076121;27;45499;-58
2023/03/19 08:29:25;;;;;;;;;9.33;7.67;;;;;;;;5076376;27;45553;-58
2023/03/19 08:31:50;;;;;;;;;5.00;5.00;;;;;;;;5070506;27;45572;-58
2023/03/19 08:34:15;;;;;;;;;6.33;6.33;;;;;;;;5056288;27;45634;-58
2023/03/19 08:36:41;;;;;;;;;6.33;5.00;;;;;;;;5076307;27;46177;-58
2023/03/19 08:39:06;;;;;;;;;9.33;7.00;;;;;;;;5076056;27;45481;-59
2023/03/19 08:41:31;;;;;;;;;6.00;6.00;;;;;;;;5076208;27;45491;-59
2023/03/19 08:43:56;;;;;;;;;7.00;5.67;;;;;;;;5076364;27;45429;-59
2023/03/19 08:46:21;;;;;;;;;10.00;8.33;;;;;;;;5057603;27;45514;-58
2023/03/19 08:48:46;;;;;;;;;7.00;5.00;;;;;;;;5075781;27;45461;-59
2023/03/19 08:51:12;;;;;;;;;4.00;4.00;;;;;;;;5076149;27;45446;-59
2023/03/19 08:53:37;;;;;;;;;4.00;4.00;;;;;;;;5057659;28;45359;-59
2023/03/19 08:56:03;;;;;;;;;5.33;5.33;;;;;;;;5075567;28;46176;-59
2023/03/19 08:58:29;;;;;;;;;6.00;6.00;;;;;;;;5075813;28;45589;-58
2023/03/19 09:01:06;;;;;;;;;5.00;5.00;;;;;;;;5065331;27;45475;-59
2023/03/19 09:03:31;;;;;;;;;5.67;5.67;;;;;;;;5051211;28;45435;-59
2023/03/19 09:05:57;;;;;;;;;7.00;5.00;;;;;;;;5063518;27;45516;-59
2023/03/19 09:08:22;;;;;;;;;6.00;6.00;;;;;;;;5075353;27;45712;-59
2023/03/19 09:10:48;;;;;;;;;5.67;5.67;;;;;;;;5075636;27;45419;-59
2023/03/19 09:13:13;;;;;;;;;6.67;6.67;;;;;;;;5075391;27;45641;-59
2023/03/19 09:15:38;;;;;;;;;7.00;6.00;;;;;;;;5075195;27;46306;-59
2023/03/19 09:18:03;;;;;;;;;6.67;5.00;;;;;;;;5075415;27;45423;-59
2023/03/19 09:20:29;;;;;;;;;7.67;7.00;;;;;;;;5075436;27;45537;-59
2023/03/19 09:22:54;;;;;;;;;6.00;3.00;;;;;;;;5066223;27;45464;-58
2023/03/19 09:25:21;;;;;;;;;4.67;3.33;;;;;;;;5069974;27;46032;-59
2023/03/19 09:27:46;;;;;;;;;4.33;4.00;;;;;;;;5075091;27;45547;-58
2023/03/19 09:30:12;;;;;;;;;4.00;4.00;;;;;;;;5074872;27;45541;-59
2023/03/19 09:32:37;;;;;;;;;3.00;3.00;;;;;;;;5056272;27;45521;-59
2023/03/19 09:35:03;;;;;;;;;5.00;4.00;;;;;;;;5074861;27;45489;-59
2023/03/19 09:37:28;;;;;;;;;5.00;5.00;;;;;;;;5056688;27;45443;-59
2023/03/19 09:39:53;;;;;;;;;8.00;5.33;;;;;;;;5075305;27;45892;-59
2023/03/19 09:42:21;;;;;;;;;5.33;5.33;;;;;;;;5074866;28;45579;-59
2023/03/19 09:44:47;;;;;;;;;5.00;5.00;;;;;;;;5056769;28;47232;-59
2023/03/19 09:47:24;;;;;;;;;5.67;5.67;;;;;;;;5074926;27;45553;-59
2023/03/19 09:49:52;;;;;;;;;5.00;5.00;;;;;;;;5048853;28;45549;-59
2023/03/19 09:52:33;;;;;;;;;4.00;4.00;;;;;;;;5070721;27;45600;-59
2023/03/19 09:55:02;;;;;;;;;5.67;4.67;;;;;;;;5058770;27;46028;-59
2023/03/19 09:57:28;;;;;;;;;4.00;4.00;;;;;;;;5056517;28;45407;-59
2023/03/19 09:59:54;;;;;;;;;5.33;4.67;;;;;;;;5072880;27;45546;-59
2023/03/19 10:02:19;;;;;;;;;4.33;4.33;;;;;;;;5062600;27;45458;-59
2023/03/19 10:04:57;;;;;;;;;5.33;4.33;;;;;;;;5074382;27;46111;-59
2023/03/19 10:07:41;;;;;;;;;3.00;3.00;;;;;;;;5049134;27;45495;-59
2023/03/19 10:10:12;;;;;;;;;2.00;2.00;;;;;;;;5074797;27;45412;-59
2023/03/19 10:12:43;;;;;;;;;2.00;2.00;;;;;;;;5056335;27;45557;-59
2023/03/19 10:15:18;;;;;;;;;4.00;3.00;;;;;;;;5074334;27;45561;-59
2023/03/19 10:17:43;;;;;;;;;2.33;2.33;;;;;;;;5074417;28;45569;-59
2023/03/19 10:20:18;;;;;;;;;3.00;2.25;;;;;;;;5074431;27;45493;-58
2023/03/19 10:22:46;;;;;;;;;2.33;2.33;;;;;;;;5072760;28;45672;-59
2023/03/19 10:25:17;;;;;;;;;2.00;2.00;;;;;;;;5074188;27;45525;-58
2023/03/19 10:27:45;;;;;;;;;1.00;1.00;;;;;;;;5073445;27;45510;-58
2023/03/19 10:30:11;;;;;;;;;3.00;3.00;;;;;;;;5074399;27;45450;-58
2023/03/19 10:32:40;;;;;;;;;2.67;2.00;;;;;;;;5074006;27;45830;-58
2023/03/19 10:35:28;;;;;;;;;3.33;3.00;;;;;;;;5073788;27;47394;-58
2023/03/19 10:37:54;;;;;;;;;4.33;3.00;;;;;;;;5065588;27;45586;-58
2023/03/19 10:40:23;;;;;;;;;3.67;3.67;;;;;;;;5074178;27;45494;-58
2023/03/19 10:42:48;;;;;;;;;4.00;4.00;;;;;;;;5074237;27;45495;-58
2023/03/19 10:45:22;;;;;;;;;5.75;5.75;;;;;;;;5074250;27;46111;-58
2023/03/19 10:47:47;;;;;;;;;4.67;4.67;;;;;;;;5055805;28;45557;-58
2023/03/19 10:50:17;;;;;;;;;9.00;6.00;;;;;;;;5074364;27;45571;-58
2023/03/19 10:52:42;;;;;;;;;6.33;6.33;;;;;;;;5066962;27;45625;-57
2023/03/19 10:55:16;;;;;;;;;7.00;7.00;;;;;;;;5069272;27;45493;-58
2023/03/19 10:57:42;;;;;;;;;8.67;8.67;;;;;;;;5069445;28;45584;-58
2023/03/19 11:00:18;;;;;;;;;10.00;10.00;;;;;;;;5069985;27;45498;-58
2023/03/19 11:02:48;;;;;;;;;8.33;8.00;;;;;;;;5064866;27;45563;-58
2023/03/19 11:05:13;;;;;;;;;9.67;9.67;;;;;;;;5073370;27;46062;-57
2023/03/19 11:07:39;;;;;;;;;16.00;12.00;;;;;;;;5073429;27;45462;-58
2023/03/19 11:10:11;;;;;;;;;13.00;12.33;;;;;;;;5073713;28;45494;-58
2023/03/19 11:12:37;;;;;;;;;9.33;9.00;;;;;;;;5073676;27;45454;-57
2023/03/19 11:15:08;;;;;;;;;11.67;10.67;;;;;;;;5066476;27;45550;-58
2023/03/19 11:17:39;;;;;;;;;12.33;11.00;;;;;;;;5054875;27;45574;-58
2023/03/19 11:20:28;;;;;;;;;4.33;4.33;;;;;;;;5067613;27;45454;-59
2023/03/19 11:22:53;;;;;;;;;4.00;3.00;;;;;;;;5051681;28;45604;-59
2023/03/19 11:25:27;;;;;;;;;1.67;1.67;;;;;;;;5072182;27;45482;-58
2023/03/19 11:28:00;;;;;;;;;2.00;2.00;;;;;;;;5073497;27;45572;-58
2023/03/19 11:30:30;;;;;;;;;4.00;1.00;;;;;;;;5073321;27;45529;-58
2023/03/19 11:33:04;;;;;;;;;1.33;1.33;;;;;;;;5073623;27;45422;-58
2023/03/19 11:35:33;;;;;;;;;2.00;2.00;;;;;;;;5073355;27;45495;-58
2023/03/19 11:37:59;;;;;;;;;2.00;2.00;;;;;;;;5073319;27;45485;-58
2023/03/19 11:40:32;;;;;;;;;1.00;1.00;;;;;;;;5076796;27;45478;-59
2023/03/19 11:43:16;;;;;;;;;2.67;2.67;;;;;;;;5076989;27;45524;-59
2023/03/19 11:46:02;;;;;;;;;1.33;1.33;;;;;;;;5041457;27;47286;-58
2023/03/19 11:48:39;;;;;;;;;3.00;1.00;;;;;;;;5076217;27;45596;-58
2023/03/19 11:51:23;;;;;;;;;2.00;2.00;;;;;;;;5064098;27;45454;-59
2023/03/19 11:53:58;;;;;;;;;2.33;2.00;;;;;;;;5053060;28;46283;-58
2023/03/19 11:56:32;;;;;;;;;2.00;2.00;;;;;;;;5075414;27;45521;-59
2023/03/19 11:58:57;;;;;;;;;2.00;2.00;;;;;;;;5076752;27;45535;-59
2023/03/19 12:01:50;;;;;;;;;3.00;2.00;;;;;;;;5062457;28;45478;-59
2023/03/19 12:04:26;;;;;;;;;3.00;3.00;;;;;;;;5055989;28;45432;-59
2023/03/19 12:07:12;;;;;;;;;3.00;3.00;;;;;;;;5076458;27;45566;-58
2023/03/19 12:09:46;;;;;;;;;3.00;3.00;;;;;;;;5076640;27;45581;-58
2023/03/19 12:12:14;;;;;;;;;2.00;2.00;;;;;;;;5076570;27;45579;-59
2023/03/19 12:14:58;;;;;;;;;4.33;2.67;;;;;;;;5076717;27;45455;-59
2023/03/19 12:17:26;;;;;;;;;2.33;2.00;;;;;;;;5076280;27;46413;-59
2023/03/19 12:20:00;;;;;;;;;2.67;2.67;;;;;;;;5076612;27;45482;-59
2023/03/19 12:22:43;;;;;;;;;1.00;1.00;;;;;;;;5076574;27;45477;-59
2023/03/19 12:25:08;;;;;;;;;3.00;3.00;;;;;;;;5062197;28;45515;-57
2023/03/19 12:27:33;;;;;;;;;3.00;3.00;;;;;;;;5075537;27;46084;-57
2023/03/19 12:29:59;;;;;;;;;3.00;2.00;;;;;;;;5076264;27;45525;-57
2023/03/19 12:32:43;;;;;;;;;3.00;3.00;;;;;;;;5076262;27;45429;-57
2023/03/19 12:35:11;;;;;;;;;3.33;2.33;;;;;;;;5076443;27;45434;-57
2023/03/19 12:37:50;;;;;;;;;3.33;2.00;;;;;;;;5057720;27;46294;-57
2023/03/19 12:40:35;;;;;;;;;3.00;3.00;;;;;;;;5075867;27;45487;-60
2023/03/19 12:43:04;;;;;;;;;5.00;4.00;;;;;;;;5024501;28;45533;-59
2023/03/19 12:45:38;;;;;;;;;2.67;1.00;;;;;;;;5058311;28;45517;-57
2023/03/19 12:48:11;;;;;;;;;2.33;1.33;;;;;;;;5041569;28;46458;-57
2023/03/19 12:50:38;;;;;;;;;4.00;3.67;;;;;;;;5068562;27;45850;-58
2023/03/19 12:53:08;;;;;;;;;3.33;3.00;;;;;;;;5076086;27;45494;-58
2023/03/19 12:55:39;;;;;;;;;2.00;2.00;;;;;;;;5075784;27;45510;-58
2023/03/19 12:58:19;;;;;;;;;3.33;3.33;;;;;;;;5075605;27;46690;-58
2023/03/19 13:00:53;;;;;;;;;3.67;2.33;;;;;;;;5066570;27;45609;-58
2023/03/19 13:03:33;;;;;;;;;2.00;2.00;;;;;;;;5071749;27;45512;-58
2023/03/19 13:06:11;;;;;;;;;2.33;2.33;;;;;;;;5076012;27;45542;-58
2023/03/19 13:08:41;;;;;;;;;2.33;2.33;;;;;;;;5075272;27;45547;-58
2023/03/19 13:11:29;;;;;;;;;3.67;3.67;;;;;;;;5075615;27;45445;-58
2023/03/19 13:14:02;;;;;;;;;2.00;2.00;;;;;;;;5067142;27;45447;-59
2023/03/19 13:16:33;;;;;;;;;1.67;1.67;;;;;;;;5069746;27;45490;-58
2023/03/19 13:19:02;;;;;;;;;4.00;4.00;;;;;;;;5056985;28;47309;-58
2023/03/19 13:21:29;;;;;;;;;2.00;2.00;;;;;;;;5075369;27;45529;-58
2023/03/19 13:24:15;;;;;;;;;2.33;2.00;;;;;;;;5075360;27;45505;-58
2023/03/19 13:26:41;;;;;;;;;2.00;2.00;;;;;;;;5075362;27;45522;-59
2023/03/19 13:29:14;;;;;;;;;2.33;2.00;;;;;;;;5075011;27;45937;-59
2023/03/19 13:31:40;;;;;;;;;3.67;3.67;;;;;;;;5074459;27;46055;-60
2023/03/19 13:34:20;;;;;;;;;3.00;3.00;;;;;;;;5074986;27;45518;-59
2023/03/19 13:37:05;;;;;;;;;3.00;3.00;;;;;;;;5075277;27;45552;-59
2023/03/19 13:39:31;;;;;;;;;3.00;3.00;;;;;;;;5073721;27;45489;-59
2023/03/19 13:42:06;;;;;;;;;4.00;3.33;;;;;;;;5074934;27;45453;-59
2023/03/19 13:44:31;;;;;;;;;3.00;3.00;;;;;;;;5070922;27;45526;-58
2023/03/19 13:47:17;;;;;;;;;2.00;2.00;;;;;;;;5058270;27;45776;-58
2023/03/19 13:50:00;;;;;;;;;2.00;2.00;;;;;;;;5063732;27;46299;-59
2023/03/19 13:52:25;;;;;;;;;2.33;2.33;;;;;;;;5056420;28;45858;-59
2023/03/19 13:54:53;;;;;;;;;2.00;2.00;;;;;;;;5075183;28;45618;-59
2023/03/19 13:57:21;;;;;;;;;1.33;1.33;;;;;;;;5056066;27;45606;-59
2023/03/19 13:59:48;;;;;;;;;1.33;1.00;;;;;;;;5055423;28;47624;-59
2023/03/19 14:02:20;;;;;;;;;1.00;1.00;;;;;;;;5060631;28;45530;-59
2023/03/19 14:04:56;;;;;;;;;2.00;2.00;;;;;;;;5065941;27;45417;-59
2023/03/19 14:07:23;;;;;;;;;2.00;2.00;;;;;;;;5042315;28;45436;-59
2023/03/19 14:10:01;;;;;;;;;2.00;2.00;;;;;;;;5049638;28;47071;-59
2023/03/19 14:12:35;;;;;;;;;3.00;1.67;;;;;;;;5048391;27;45495;-59
2023/03/19 14:15:13;;;;;;;;;1.00;1.00;;;;;;;;5074739;27;45450;-59
2023/03/19 14:17:43;;;;;;;;;2.00;2.00;;;;;;;;5074592;27;45416;-59
2023/03/19 14:20:09;;;;;;;;;2.67;2.00;;;;;;;;5074067;28;46181;-59
2023/03/19 14:22:40;;;;;;;;;4.00;2.67;;;;;;;;5074565;28;45401;-59
2023/03/19 14:25:21;;;;;;;;;1.00;1.00;;;;;;;;5074705;27;45555;-59
2023/03/19 14:27:48;;;;;;;;;1.00;1.00;;;;;;;;5048921;27;45512;-59
2023/03/19 14:30:16;;;;;;;;;1.00;1.00;;;;;;;;5074219;27;46709;-59
2023/03/19 14:32:46;;;;;;;;;2.00;2.00;;;;;;;;5073888;27;45518;-59
2023/03/19 14:35:15;;;;;;;;;2.00;2.00;;;;;;;;5074322;27;45481;-59
2023/03/19 14:37:43;;;;;;;;;1.00;1.00;;;;;;;;5053088;27;45530;-59
2023/03/19 14:40:16;;;;;;;;;1.00;1.00;;;;;;;;5074146;27;46305;-57
2023/03/19 14:42:50;;;;;;;;;2.00;2.00;;;;;;;;5074137;27;45555;-58